sensor_id;sensor_type;location;lat;lon;timestamp;pressure;altitude;pressure_sealevel;temperature;humidity
51417;BME280;50158;51.528;6.982;2022-12-10T00:03:35;66490;;;1.1;100
51417;BME280;50158;51.528;6.982;2022-12-10T00:06:04;66490;;;1.09;100
51417;BME280;50158;51.528;6.982;2022-12-10T00:08:31;66500;;;1.15;100
51417;BME280;50158;51.528;6.982;2022-12-10T00:11:02;66490;;;1.04;100
51417;BME280;50158;51.528;6.982;2022-12-10T00:13:28;66490;;;1.08;100
51417;BME280;50158;51.528;6.982;2022-12-10T00:15:59;66490;;;1.09;100
51417;BME280;50158;51.528;6.982;2022-12-10T00:18:24;66480;;;0.97;100
51417;BME280;50158;51.528;6.982;2022-12-10T00:20:53;66480;;;0.98;100
51417;BME280;50158;51.528;6.982;2022-12-10T00:23:21;66480;;;0.99;100
51417;BME280;50158;51.528;6.982;2022-12-10T00:25:49;66510;;;1.23;100
51417;BME280;50158;51.528;6.982;2022-12-10T00:28:18;66520;;;1.36;100
51417;BME280;50158;51.528;6.982;2022-12-10T00:30:46;66470;;;0.91;100
51417;BME280;50158;51.528;6.982;2022-12-10T00:33:14;66460;;;0.84;100
51417;BME280;50158;51.528;6.982;2022-12-10T00:35:42;66460;;;0.77;100
51417;BME280;50158;51.528;6.982;2022-12-10T00:38:11;66450;;;0.7;100
51417;BME280;50158;51.528;6.982;2022-12-10T00:40:39;66460;;;0.78;100
51417;BME280;50158;51.528;6.982;2022-12-10T00:43:07;66450;;;0.65;100
51417;BME280;50158;51.528;6.982;2022-12-10T00:45:36;66430;;;0.5;100
51417;BME280;50158;51.528;6.982;2022-12-10T00:48:04;66440;;;0.58;100
51417;BME280;50158;51.528;6.982;2022-12-10T00:50:32;66430;;;0.45;100
51417;BME280;50158;51.528;6.982;2022-12-10T00:55:29;66430;;;0.5;100
51417;BME280;50158;51.528;6.982;2022-12-10T00:57:57;66410;;;0.32;100
51417;BME280;50158;51.528;6.982;2022-12-10T01:00:25;66420;;;0.4;100
51417;BME280;50158;51.528;6.982;2022-12-10T01:04:52;66420;;;0.39;100
51417;BME280;50158;51.528;6.982;2022-12-10T01:10:02;66390;;;0.18;100
51417;BME280;50158;51.528;6.982;2022-12-10T01:12:30;66400;;;0.19;100
51417;BME280;50158;51.528;6.982;2022-12-10T01:14:58;66390;;;0.17;100
51417;BME280;50158;51.528;6.982;2022-12-10T01:17:27;66400;;;0.19;100
51417;BME280;50158;51.528;6.982;2022-12-10T01:19:55;66410;;;0.28;100
51417;BME280;50158;51.528;6.982;2022-12-10T01:22:23;66380;;;0.04;100
51417;BME280;50158;51.528;6.982;2022-12-10T01:24:52;66360;;;-0.15;100
51417;BME280;50158;51.528;6.982;2022-12-10T01:27:20;66370;;;-0.07;100
51417;BME280;50158;51.528;6.982;2022-12-10T01:29:48;66400;;;0.19;100
51417;BME280;50158;51.528;6.982;2022-12-10T01:32:16;66370;;;-0.08;100
51417;BME280;50158;51.528;6.982;2022-12-10T01:34:45;66360;;;-0.16;100
51417;BME280;50158;51.528;6.982;2022-12-10T01:37:13;66360;;;-0.16;100
51417;BME280;50158;51.528;6.982;2022-12-10T01:39:41;66360;;;-0.12;100
51417;BME280;50158;51.528;6.982;2022-12-10T01:42:10;66350;;;-0.25;100
51417;BME280;50158;51.528;6.982;2022-12-10T01:47:06;66340;;;-0.32;100
51417;BME280;50158;51.528;6.982;2022-12-10T01:49:36;66350;;;-0.26;100
51417;BME280;50158;51.528;6.982;2022-12-10T01:52:03;66370;;;-0.09;100
51417;BME280;50158;51.528;6.982;2022-12-10T01:54:32;66370;;;-0.09;100
51417;BME280;50158;51.528;6.982;2022-12-10T01:57:00;66370;;;-0.04;100
51417;BME280;50158;51.528;6.982;2022-12-10T02:01:28;66370;;;-0.02;100
51417;BME280;50158;51.528;6.982;2022-12-10T02:03:57;66360;;;-0.13;100
51417;BME280;50158;51.528;6.982;2022-12-10T02:06:42;66360;;;-0.17;100
51417;BME280;50158;51.528;6.982;2022-12-10T02:08:53;66370;;;-0.04;100
51417;BME280;50158;51.528;6.982;2022-12-10T02:11:17;66360;;;-0.16;100
51417;BME280;50158;51.528;6.982;2022-12-10T02:13:50;66350;;;-0.29;100
51417;BME280;50158;51.528;6.982;2022-12-10T02:16:14;66330;;;-0.38;100
51417;BME280;50158;51.528;6.982;2022-12-10T02:18:49;66340;;;-0.38;100
51417;BME280;50158;51.528;6.982;2022-12-10T02:21:15;66340;;;-0.31;100
51417;BME280;50158;51.528;6.982;2022-12-10T02:23:40;66350;;;-0.29;100
51417;BME280;50158;51.528;6.982;2022-12-10T02:26:09;66340;;;-0.34;100
51417;BME280;50158;51.528;6.982;2022-12-10T02:28:45;66340;;;-0.37;100
51417;BME280;50158;51.528;6.982;2022-12-10T02:31:02;66340;;;-0.38;100
51417;BME280;50158;51.528;6.982;2022-12-10T02:33:31;66330;;;-0.44;100
51417;BME280;50158;51.528;6.982;2022-12-10T02:35:59;66340;;;-0.3;100
51417;BME280;50158;51.528;6.982;2022-12-10T02:38:29;66350;;;-0.27;100
51417;BME280;50158;51.528;6.982;2022-12-10T02:40:57;66360;;;-0.14;100
51417;BME280;50158;51.528;6.982;2022-12-10T02:43:24;66360;;;-0.13;100
51417;BME280;50158;51.528;6.982;2022-12-10T02:45:52;66360;;;-0.13;100
51417;BME280;50158;51.528;6.982;2022-12-10T02:48:20;66360;;;-0.13;100
51417;BME280;50158;51.528;6.982;2022-12-10T02:50:48;66370;;;-0.04;100
51417;BME280;50158;51.528;6.982;2022-12-10T02:53:17;66380;;;0;100
51417;BME280;50158;51.528;6.982;2022-12-10T02:56:52;66380;;;0.01;100
51417;BME280;50158;51.528;6.982;2022-12-10T02:58:17;66380;;;0.05;100
51417;BME280;50158;51.528;6.982;2022-12-10T03:03:38;66390;;;0.1;100
51417;BME280;50158;51.528;6.982;2022-12-10T03:05:09;66390;;;0.14;100
51417;BME280;50158;51.528;6.982;2022-12-10T03:07:35;66380;;;0.05;100
51417;BME280;50158;51.528;6.982;2022-12-10T03:10:04;66390;;;0.08;100
51417;BME280;50158;51.528;6.982;2022-12-10T03:12:32;66400;;;0.23;100
51417;BME280;50158;51.528;6.982;2022-12-10T03:14:59;66410;;;0.36;100
51417;BME280;50158;51.528;6.982;2022-12-10T03:19:55;66420;;;0.36;100
51417;BME280;50158;51.528;6.982;2022-12-10T03:22:23;66420;;;0.42;100
51417;BME280;50158;51.528;6.982;2022-12-10T03:24:52;66410;;;0.3;100
51417;BME280;50158;51.528;6.982;2022-12-10T03:27:21;66390;;;0.14;100
51417;BME280;50158;51.528;6.982;2022-12-10T03:29:49;66390;;;0.08;100
51417;BME280;50158;51.528;6.982;2022-12-10T03:32:16;66390;;;0.08;100
51417;BME280;50158;51.528;6.982;2022-12-10T03:34:45;66410;;;0.26;100
51417;BME280;50158;51.528;6.982;2022-12-10T03:39:58;66400;;;0.25;100
51417;BME280;50158;51.528;6.982;2022-12-10T03:42:26;66400;;;0.23;100
51417;BME280;50158;51.528;6.982;2022-12-10T03:44:54;66600;;;2.07;100
51417;BME280;50158;51.528;6.982;2022-12-10T03:47:23;66620;;;2.24;100
51417;BME280;50158;51.528;6.982;2022-12-10T03:49:51;66530;;;1.44;100
51417;BME280;50158;51.528;6.982;2022-12-10T03:52:19;66520;;;1.35;100
51417;BME280;50158;51.528;6.982;2022-12-10T03:54:47;66500;;;1.19;100
51417;BME280;50158;51.528;6.982;2022-12-10T03:57:15;66500;;;1.19;100
51417;BME280;50158;51.528;6.982;2022-12-10T03:59:44;66480;;;0.95;100
51417;BME280;50158;51.528;6.982;2022-12-10T04:04:08;66470;;;0.9;100
51417;BME280;50158;51.528;6.982;2022-12-10T04:06:38;66470;;;0.89;100
51417;BME280;50158;51.528;6.982;2022-12-10T04:09:04;66470;;;0.91;100
51417;BME280;50158;51.528;6.982;2022-12-10T04:11:32;66460;;;0.82;100
51417;BME280;50158;51.528;6.982;2022-12-10T04:14:01;66460;;;0.83;100
51417;BME280;50158;51.528;6.982;2022-12-10T04:16:30;66460;;;0.79;100
51417;BME280;50158;51.528;6.982;2022-12-10T04:18:59;66440;;;0.55;100
51417;BME280;50158;51.528;6.982;2022-12-10T04:21:26;66460;;;0.76;100
51417;BME280;50158;51.528;6.982;2022-12-10T04:23:54;66420;;;0.37;100
51417;BME280;50158;51.528;6.982;2022-12-10T04:26:22;66420;;;0.37;100
51417;BME280;50158;51.528;6.982;2022-12-10T04:28:50;66460;;;0.81;100
51417;BME280;50158;51.528;6.982;2022-12-10T04:31:19;66440;;;0.61;100
51417;BME280;50158;51.528;6.982;2022-12-10T04:33:47;66420;;;0.38;100
51417;BME280;50158;51.528;6.982;2022-12-10T04:36:15;66420;;;0.43;100
51417;BME280;50158;51.528;6.982;2022-12-10T04:38:43;66400;;;0.23;100
51417;BME280;50158;51.528;6.982;2022-12-10T04:41:12;66400;;;0.21;100
51417;BME280;50158;51.528;6.982;2022-12-10T04:43:41;66400;;;0.18;100
51417;BME280;50158;51.528;6.982;2022-12-10T04:46:09;66380;;;0.05;100
51417;BME280;50158;51.528;6.982;2022-12-10T04:48:37;66400;;;0.19;100
51417;BME280;50158;51.528;6.982;2022-12-10T04:51:05;66390;;;0.17;100
51417;BME280;50158;51.528;6.982;2022-12-10T04:53:33;66380;;;0.06;100
51417;BME280;50158;51.528;6.982;2022-12-10T04:56:01;66370;;;-0.05;100
51417;BME280;50158;51.528;6.982;2022-12-10T04:58:30;66400;;;0.19;100
51417;BME280;50158;51.528;6.982;2022-12-10T05:01:02;66400;;;0.22;100
51417;BME280;50158;51.528;6.982;2022-12-10T05:03:26;66380;;;0.06;100
51417;BME280;50158;51.528;6.982;2022-12-10T05:05:54;66370;;;-0.02;100
51417;BME280;50158;51.528;6.982;2022-12-10T05:10:18;66390;;;0.11;100
51417;BME280;50158;51.528;6.982;2022-12-10T05:12:46;66380;;;0.01;100
51417;BME280;50158;51.528;6.982;2022-12-10T05:15:15;66370;;;-0.06;100
51417;BME280;50158;51.528;6.982;2022-12-10T05:17:43;66370;;;-0.1;100
51417;BME280;50158;51.528;6.982;2022-12-10T05:20:11;66370;;;-0.06;100
51417;BME280;50158;51.528;6.982;2022-12-10T05:22:40;66380;;;0;100
51417;BME280;50158;51.528;6.982;2022-12-10T05:25:08;66380;;;0.05;100
51417;BME280;50158;51.528;6.982;2022-12-10T05:27:36;66370;;;-0.08;100
51417;BME280;50158;51.528;6.982;2022-12-10T05:30:05;66370;;;-0.03;100
51417;BME280;50158;51.528;6.982;2022-12-10T05:32:33;66370;;;-0.08;100
51417;BME280;50158;51.528;6.982;2022-12-10T05:35:01;66340;;;-0.33;100
51417;BME280;50158;51.528;6.982;2022-12-10T05:37:29;66340;;;-0.38;100
51417;BME280;50158;51.528;6.982;2022-12-10T05:39:57;66340;;;-0.35;100
51417;BME280;50158;51.528;6.982;2022-12-10T05:42:26;66310;;;-0.58;100
51417;BME280;50158;51.528;6.982;2022-12-10T05:44:54;66320;;;-0.52;100
51417;BME280;50158;51.528;6.982;2022-12-10T05:47:22;66330;;;-0.44;100
51417;BME280;50158;51.528;6.982;2022-12-10T05:49:51;66350;;;-0.29;100
51417;BME280;50158;51.528;6.982;2022-12-10T05:52:19;66340;;;-0.39;100
51417;BME280;50158;51.528;6.982;2022-12-10T05:54:47;66330;;;-0.44;100
51417;BME280;50158;51.528;6.982;2022-12-10T05:57:15;66390;;;0.16;100
51417;BME280;50158;51.528;6.982;2022-12-10T05:59:44;66300;;;-0.71;100
51417;BME280;50158;51.528;6.982;2022-12-10T06:02:12;66280;;;-0.88;100
51417;BME280;50158;51.528;6.982;2022-12-10T06:09:20;66290;;;-0.82;100
51417;BME280;50158;51.528;6.982;2022-12-10T06:11:49;66270;;;-0.96;100
51417;BME280;50158;51.528;6.982;2022-12-10T06:14:17;66290;;;-0.83;100
51417;BME280;50158;51.528;6.982;2022-12-10T06:16:45;66280;;;-0.91;100
51417;BME280;50158;51.528;6.982;2022-12-10T06:19:14;66280;;;-0.86;100
51417;BME280;50158;51.528;6.982;2022-12-10T06:21:42;66310;;;-0.64;100
51417;BME280;50158;51.528;6.982;2022-12-10T06:24:10;66320;;;-0.52;100
51417;BME280;50158;51.528;6.982;2022-12-10T06:26:38;66320;;;-0.5;100
51417;BME280;50158;51.528;6.982;2022-12-10T06:29:08;66320;;;-0.5;100
51417;BME280;50158;51.528;6.982;2022-12-10T06:31:35;66340;;;-0.35;100
51417;BME280;50158;51.528;6.982;2022-12-10T06:34:03;66350;;;-0.26;100
51417;BME280;50158;51.528;6.982;2022-12-10T06:36:31;66320;;;-0.51;100
51417;BME280;50158;51.528;6.982;2022-12-10T06:39:00;66420;;;0.38;100
51417;BME280;50158;51.528;6.982;2022-12-10T06:41:28;66460;;;0.77;100
51417;BME280;50158;51.528;6.982;2022-12-10T06:43:56;66350;;;-0.23;100
51417;BME280;50158;51.528;6.982;2022-12-10T06:46:25;66340;;;-0.36;100
51417;BME280;50158;51.528;6.982;2022-12-10T06:48:53;66310;;;-0.66;100
51417;BME280;50158;51.528;6.982;2022-12-10T06:51:21;66310;;;-0.66;100
51417;BME280;50158;51.528;6.982;2022-12-10T06:53:49;66340;;;-0.32;100
51417;BME280;50158;51.528;6.982;2022-12-10T06:56:18;66430;;;0.47;100
51417;BME280;50158;51.528;6.982;2022-12-10T06:58:46;66460;;;0.75;100
51417;BME280;50158;51.528;6.982;2022-12-10T07:01:15;66450;;;0.69;100
51417;BME280;50158;51.528;6.982;2022-12-10T07:03:43;66410;;;0.32;100
51417;BME280;50158;51.528;6.982;2022-12-10T07:08:06;66220;;;-1.43;100
51417;BME280;50158;51.528;6.982;2022-12-10T07:10:36;66220;;;-1.48;100
51417;BME280;50158;51.528;6.982;2022-12-10T07:13:03;66210;;;-1.51;100
51417;BME280;50158;51.528;6.982;2022-12-10T07:15:31;66200;;;-1.63;100
51417;BME280;50158;51.528;6.982;2022-12-10T07:17:59;66200;;;-1.61;100
51417;BME280;50158;51.528;6.982;2022-12-10T07:20:29;66200;;;-1.65;100
51417;BME280;50158;51.528;6.982;2022-12-10T07:22:56;66210;;;-1.55;100
51417;BME280;50158;51.528;6.982;2022-12-10T07:25:24;66210;;;-1.6;100
51417;BME280;50158;51.528;6.982;2022-12-10T07:27:52;66210;;;-1.51;100
51417;BME280;50158;51.528;6.982;2022-12-10T07:30:21;66210;;;-1.57;100
51417;BME280;50158;51.528;6.982;2022-12-10T07:32:49;66230;;;-1.34;100
51417;BME280;50158;51.528;6.982;2022-12-10T07:35:17;66220;;;-1.42;100
51417;BME280;50158;51.528;6.982;2022-12-10T07:37:46;66230;;;-1.35;100
51417;BME280;50158;51.528;6.982;2022-12-10T07:40:14;66230;;;-1.39;100
51417;BME280;50158;51.528;6.982;2022-12-10T07:42:42;66240;;;-1.26;100
51417;BME280;50158;51.528;6.982;2022-12-10T07:45:10;66230;;;-1.35;100
51417;BME280;50158;51.528;6.982;2022-12-10T07:47:39;66240;;;-1.24;100
51417;BME280;50158;51.528;6.982;2022-12-10T07:50:07;66240;;;-1.24;100
51417;BME280;50158;51.528;6.982;2022-12-10T07:52:35;66220;;;-1.42;100
51417;BME280;50158;51.528;6.982;2022-12-10T07:55:04;66240;;;-1.32;100
51417;BME280;50158;51.528;6.982;2022-12-10T07:57:32;66240;;;-1.28;100
51417;BME280;50158;51.528;6.982;2022-12-10T08:00:00;66240;;;-1.27;100
51417;BME280;50158;51.528;6.982;2022-12-10T08:02:28;66250;;;-1.21;100
51417;BME280;50158;51.528;6.982;2022-12-10T08:04:57;66250;;;-1.15;100
51417;BME280;50158;51.528;6.982;2022-12-10T08:07:25;66240;;;-1.23;100
51417;BME280;50158;51.528;6.982;2022-12-10T08:09:53;66240;;;-1.22;100
51417;BME280;50158;51.528;6.982;2022-12-10T08:14:17;66240;;;-1.25;100
51417;BME280;50158;51.528;6.982;2022-12-10T08:16:45;66250;;;-1.15;100
51417;BME280;50158;51.528;6.982;2022-12-10T08:19:13;66240;;;-1.25;100
51417;BME280;50158;51.528;6.982;2022-12-10T08:21:42;66250;;;-1.16;100
51417;BME280;50158;51.528;6.982;2022-12-10T08:24:10;66270;;;-1.02;100
51417;BME280;50158;51.528;6.982;2022-12-10T08:26:38;66260;;;-1.08;100
51417;BME280;50158;51.528;6.982;2022-12-10T08:29:07;66270;;;-1.03;100
51417;BME280;50158;51.528;6.982;2022-12-10T08:31:35;66260;;;-1.05;100
51417;BME280;50158;51.528;6.982;2022-12-10T08:34:04;66270;;;-0.99;100
51417;BME280;50158;51.528;6.982;2022-12-10T08:39:16;66270;;;-0.95;100
51417;BME280;50158;51.528;6.982;2022-12-10T08:41:44;66280;;;-0.91;100
51417;BME280;50158;51.528;6.982;2022-12-10T08:44:13;66270;;;-0.99;100
51417;BME280;50158;51.528;6.982;2022-12-10T08:46:41;66280;;;-0.86;100
51417;BME280;50158;51.528;6.982;2022-12-10T08:51:37;66290;;;-0.8;100
51417;BME280;50158;51.528;6.982;2022-12-10T08:54:06;66270;;;-0.95;100
51417;BME280;50158;51.528;6.982;2022-12-10T08:56:34;66280;;;-0.85;100
51417;BME280;50158;51.528;6.982;2022-12-10T08:59:02;66270;;;-0.97;100
51417;BME280;50158;51.528;6.982;2022-12-10T09:01:31;66260;;;-1.05;100
51417;BME280;50158;51.528;6.982;2022-12-10T09:03:59;66260;;;-1.09;100
51417;BME280;50158;51.528;6.982;2022-12-10T09:06:27;66270;;;-0.99;100
51417;BME280;50158;51.528;6.982;2022-12-10T09:10:51;66280;;;-0.86;100
51417;BME280;50158;51.528;6.982;2022-12-10T09:13:19;66280;;;-0.91;100
51417;BME280;50158;51.528;6.982;2022-12-10T09:15:50;66270;;;-1;100
51417;BME280;50158;51.528;6.982;2022-12-10T09:18:16;66270;;;-0.95;100
51417;BME280;50158;51.528;6.982;2022-12-10T09:20:44;66280;;;-0.87;100
51417;BME280;50158;51.528;6.982;2022-12-10T09:23:12;66280;;;-0.89;100
51417;BME280;50158;51.528;6.982;2022-12-10T09:25:41;66280;;;-0.91;100
51417;BME280;50158;51.528;6.982;2022-12-10T09:28:09;66270;;;-0.96;100
51417;BME280;50158;51.528;6.982;2022-12-10T09:30:37;66270;;;-0.97;100
51417;BME280;50158;51.528;6.982;2022-12-10T09:33:05;66260;;;-1.11;100
51417;BME280;50158;51.528;6.982;2022-12-10T09:35:34;66270;;;-1.02;100
51417;BME280;50158;51.528;6.982;2022-12-10T09:38:02;66270;;;-0.95;100
51417;BME280;50158;51.528;6.982;2022-12-10T09:40:34;66250;;;-1.13;100
51417;BME280;50158;51.528;6.982;2022-12-10T09:43:00;66240;;;-1.24;100
51417;BME280;50158;51.528;6.982;2022-12-10T09:45:32;66250;;;-1.17;100
51417;BME280;50158;51.528;6.982;2022-12-10T09:48:00;66250;;;-1.21;100
51417;BME280;50158;51.528;6.982;2022-12-10T09:50:34;66240;;;-1.25;100
51417;BME280;50158;51.528;6.982;2022-12-10T09:52:52;66230;;;-1.36;100
51417;BME280;50158;51.528;6.982;2022-12-10T09:55:22;66230;;;-1.36;100
51417;BME280;50158;51.528;6.982;2022-12-10T09:57:49;66230;;;-1.37;100
51417;BME280;50158;51.528;6.982;2022-12-10T10:00:19;66210;;;-1.5;100
51417;BME280;50158;51.528;6.982;2022-12-10T10:02:45;66220;;;-1.43;100
51417;BME280;50158;51.528;6.982;2022-12-10T10:05:21;66220;;;-1.45;100
51417;BME280;50158;51.528;6.982;2022-12-10T10:07:42;66230;;;-1.35;100
51417;BME280;50158;51.528;6.982;2022-12-10T10:12:13;66220;;;-1.44;100
51417;BME280;50158;51.528;6.982;2022-12-10T10:14:33;66230;;;-1.41;100
51417;BME280;50158;51.528;6.982;2022-12-10T10:17:02;66210;;;-1.56;100
51417;BME280;50158;51.528;6.982;2022-12-10T10:19:31;66200;;;-1.66;100
51417;BME280;50158;51.528;6.982;2022-12-10T10:21:58;66210;;;-1.54;100
51417;BME280;50158;51.528;6.982;2022-12-10T10:24:30;66200;;;-1.66;100
51417;BME280;50158;51.528;6.982;2022-12-10T10:26:56;66180;;;-1.78;100
51417;BME280;50158;51.528;6.982;2022-12-10T10:29:23;66210;;;-1.59;100
51417;BME280;50158;51.528;6.982;2022-12-10T10:32:26;66190;;;-1.72;100
51417;BME280;50158;51.528;6.982;2022-12-10T10:34:20;66220;;;-1.49;100
51417;BME280;50158;51.528;6.982;2022-12-10T10:36:53;66210;;;-1.55;100
51417;BME280;50158;51.528;6.982;2022-12-10T10:41:45;66220;;;-1.44;100
51417;BME280;50158;51.528;6.982;2022-12-10T10:44:14;66220;;;-1.43;100
51417;BME280;50158;51.528;6.982;2022-12-10T10:46:41;66250;;;-1.22;100
51417;BME280;50158;51.528;6.982;2022-12-10T10:49:14;66240;;;-1.3;100
51417;BME280;50158;51.528;6.982;2022-12-10T10:51:41;66240;;;-1.27;100
51417;BME280;50158;51.528;6.982;2022-12-10T10:54:06;66230;;;-1.36;100
51417;BME280;50158;51.528;6.982;2022-12-10T10:56:42;66230;;;-1.33;100
51417;BME280;50158;51.528;6.982;2022-12-10T10:59:04;66230;;;-1.4;100
51417;BME280;50158;51.528;6.982;2022-12-10T11:01:46;66230;;;-1.39;100
51417;BME280;50158;51.528;6.982;2022-12-10T11:03:59;66210;;;-1.54;100
51417;BME280;50158;51.528;6.982;2022-12-10T11:09:17;66220;;;-1.44;100
51417;BME280;50158;51.528;6.982;2022-12-10T11:13:35;66210;;;-1.53;100
51417;BME280;50158;51.528;6.982;2022-12-10T11:16:21;66210;;;-1.52;100
51417;BME280;50158;51.528;6.982;2022-12-10T11:18:33;66230;;;-1.38;100
51417;BME280;50158;51.528;6.982;2022-12-10T11:21:18;66230;;;-1.41;100
51417;BME280;50158;51.528;6.982;2022-12-10T11:23:30;66240;;;-1.25;100
51417;BME280;50158;51.528;6.982;2022-12-10T11:26:00;66250;;;-1.14;100
51417;BME280;50158;51.528;6.982;2022-12-10T11:28:44;66240;;;-1.32;100
51417;BME280;50158;51.528;6.982;2022-12-10T11:30:57;66240;;;-1.23;100
51417;BME280;50158;51.528;6.982;2022-12-10T11:35:55;66230;;;-1.33;100
51417;BME280;50158;51.528;6.982;2022-12-10T11:38:21;66220;;;-1.44;100
51417;BME280;50158;51.528;6.982;2022-12-10T11:41:24;66250;;;-1.17;100
51417;BME280;50158;51.528;6.982;2022-12-10T11:43:20;66250;;;-1.15;100
51417;BME280;50158;51.528;6.982;2022-12-10T11:45:46;66260;;;-1.13;100
51417;BME280;50158;51.528;6.982;2022-12-10T11:48:16;66260;;;-1.11;100
51417;BME280;50158;51.528;6.982;2022-12-10T11:50:43;66280;;;-0.91;100
51417;BME280;50158;51.528;6.982;2022-12-10T11:53:12;66260;;;-1.11;100
51417;BME280;50158;51.528;6.982;2022-12-10T11:56:11;66260;;;-1.1;100
51417;BME280;50158;51.528;6.982;2022-12-10T11:58:11;66290;;;-0.8;100
51417;BME280;50158;51.528;6.982;2022-12-10T12:01:08;66290;;;-0.78;100
51417;BME280;50158;51.528;6.982;2022-12-10T12:03:06;66300;;;-0.69;100
51417;BME280;50158;51.528;6.982;2022-12-10T12:10:45;66290;;;-0.78;100
51417;BME280;50158;51.528;6.982;2022-12-10T12:12:57;66300;;;-0.66;100
51417;BME280;50158;51.528;6.982;2022-12-10T12:15:25;66300;;;-0.7;100
51417;BME280;50158;51.528;6.982;2022-12-10T12:19:47;66290;;;-0.85;100
51417;BME280;50158;51.528;6.982;2022-12-10T12:22:16;66290;;;-0.81;100
51417;BME280;50158;51.528;6.982;2022-12-10T12:24:44;66290;;;-0.82;100
51417;BME280;50158;51.528;6.982;2022-12-10T12:27:14;66300;;;-0.72;100
51417;BME280;50158;51.528;6.982;2022-12-10T12:29:48;66300;;;-0.75;100
51417;BME280;50158;51.528;6.982;2022-12-10T12:32:13;66300;;;-0.73;100
51417;BME280;50158;51.528;6.982;2022-12-10T12:34:44;66290;;;-0.75;100
51417;BME280;50158;51.528;6.982;2022-12-10T12:37:04;66300;;;-0.76;100
51417;BME280;50158;51.528;6.982;2022-12-10T12:39:35;66300;;;-0.68;100
51417;BME280;50158;51.528;6.982;2022-12-10T12:42:04;66300;;;-0.72;100
51417;BME280;50158;51.528;6.982;2022-12-10T12:44:32;66290;;;-0.84;100
51417;BME280;50158;51.528;6.982;2022-12-10T12:47:01;66280;;;-0.9;100
51417;BME280;50158;51.528;6.982;2022-12-10T12:49:41;66300;;;-0.72;100
51417;BME280;50158;51.528;6.982;2022-12-10T12:51:56;66300;;;-0.72;100
51417;BME280;50158;51.528;6.982;2022-12-10T12:54:22;66320;;;-0.56;100
51417;BME280;50158;51.528;6.982;2022-12-10T12:57:58;66330;;;-0.43;100
51417;BME280;50158;51.528;6.982;2022-12-10T12:59:27;66330;;;-0.48;100
51417;BME280;50158;51.528;6.982;2022-12-10T13:01:49;66320;;;-0.56;100
51417;BME280;50158;51.528;6.982;2022-12-10T13:04:15;66310;;;-0.62;100
51417;BME280;50158;51.528;6.982;2022-12-10T13:06:43;66320;;;-0.55;100
51417;BME280;50158;51.528;6.982;2022-12-10T13:09:17;66320;;;-0.46;100
51417;BME280;50158;51.528;6.982;2022-12-10T13:11:41;66330;;;-0.43;100
51417;BME280;50158;51.528;6.982;2022-12-10T13:17:22;66320;;;-0.49;100
51417;BME280;50158;51.528;6.982;2022-12-10T13:18:34;66310;;;-0.58;100
51417;BME280;50158;51.528;6.982;2022-12-10T13:21:32;66320;;;-0.54;100
51417;BME280;50158;51.528;6.982;2022-12-10T13:23:29;66320;;;-0.48;100
51417;BME280;50158;51.528;6.982;2022-12-10T13:25:58;66310;;;-0.61;100
51417;BME280;50158;51.528;6.982;2022-12-10T13:28:29;66310;;;-0.6;100
51417;BME280;50158;51.528;6.982;2022-12-10T13:33:22;66320;;;-0.52;100
51417;BME280;50158;51.528;6.982;2022-12-10T13:35:58;66320;;;-0.55;100
51417;BME280;50158;51.528;6.982;2022-12-10T13:41:04;66320;;;-0.49;100
51417;BME280;50158;51.528;6.982;2022-12-10T13:43:36;66330;;;-0.48;100
51417;BME280;50158;51.528;6.982;2022-12-10T13:46:32;66330;;;-0.45;100
51417;BME280;50158;51.528;6.982;2022-12-10T13:48:29;66330;;;-0.41;100
51417;BME280;50158;51.528;6.982;2022-12-10T13:51:01;66330;;;-0.39;100
51417;BME280;50158;51.528;6.982;2022-12-10T13:53:37;66360;;;-0.13;100
51417;BME280;50158;51.528;6.982;2022-12-10T13:58:25;66340;;;-0.37;100
51417;BME280;50158;51.528;6.982;2022-12-10T14:00:51;66340;;;-0.35;100
51417;BME280;50158;51.528;6.982;2022-12-10T14:06:50;66330;;;-0.43;100
51417;BME280;50158;51.528;6.982;2022-12-10T14:08:16;66340;;;-0.3;100
51417;BME280;50158;51.528;6.982;2022-12-10T14:10:42;66340;;;-0.32;100
51417;BME280;50158;51.528;6.982;2022-12-10T14:13:11;66330;;;-0.46;100
51417;BME280;50158;51.528;6.982;2022-12-10T14:15:39;66330;;;-0.44;100
51417;BME280;50158;51.528;6.982;2022-12-10T14:18:11;66330;;;-0.45;100
51417;BME280;50158;51.528;6.982;2022-12-10T14:22:39;66330;;;-0.47;100
51417;BME280;50158;51.528;6.982;2022-12-10T14:25:00;66350;;;-0.24;100
51417;BME280;50158;51.528;6.982;2022-12-10T14:27:27;66340;;;-0.34;100
51417;BME280;50158;51.528;6.982;2022-12-10T14:30:00;66330;;;-0.39;100
51417;BME280;50158;51.528;6.982;2022-12-10T14:32:27;66350;;;-0.24;100
51417;BME280;50158;51.528;6.982;2022-12-10T14:34:54;66350;;;-0.24;100
51417;BME280;50158;51.528;6.982;2022-12-10T14:37:23;66330;;;-0.44;100
51417;BME280;50158;51.528;6.982;2022-12-10T14:39:49;66330;;;-0.43;100
51417;BME280;50158;51.528;6.982;2022-12-10T14:42:17;66350;;;-0.27;100
51417;BME280;50158;51.528;6.982;2022-12-10T14:44:45;66350;;;-0.24;100
51417;BME280;50158;51.528;6.982;2022-12-10T14:47:14;66330;;;-0.44;100
51417;BME280;50158;51.528;6.982;2022-12-10T14:49:43;66370;;;-0.1;100
51417;BME280;50158;51.528;6.982;2022-12-10T14:52:11;66360;;;-0.14;100
51417;BME280;50158;51.528;6.982;2022-12-10T14:54:38;66350;;;-0.26;100
51417;BME280;50158;51.528;6.982;2022-12-10T14:57:08;66350;;;-0.23;100
51417;BME280;50158;51.528;6.982;2022-12-10T14:59:39;66350;;;-0.27;100
51417;BME280;50158;51.528;6.982;2022-12-10T15:02:05;66340;;;-0.29;100
51417;BME280;50158;51.528;6.982;2022-12-10T15:04:38;66340;;;-0.38;100
51417;BME280;50158;51.528;6.982;2022-12-10T15:07:00;66340;;;-0.37;100
51417;BME280;50158;51.528;6.982;2022-12-10T15:09:28;66330;;;-0.4;100
51417;BME280;50158;51.528;6.982;2022-12-10T15:11:58;66340;;;-0.34;100
51417;BME280;50158;51.528;6.982;2022-12-10T15:14:25;66350;;;-0.26;100
51417;BME280;50158;51.528;6.982;2022-12-10T15:16:53;66340;;;-0.31;100
51417;BME280;50158;51.528;6.982;2022-12-10T15:19:24;66350;;;-0.23;100